Time;durP1;ratioP1;P1;durP2;ratioP2;P2;SDS_P1;SDS_P2;PMS_P1;PMS_P2;Temp;Humidity;BMP_temperature;BMP_pressure;BME280_temperature;BME280_humidity;BME280_pressure;Samples;Min_cycle;Max_cycle;Signal;HPM_P1;HPM_P2
2022/01/10 00:01:51;;;;;;;62.67;26.37;;;;;;;-2.72;79.60;99861.16;1835284;78;25378;-72
2022/01/10 00:04:17;;;;;;;55.95;22.75;;;;;;;-2.71;79.64;99866.73;1835092;78;25635;-72
2022/01/10 00:06:45;;;;;;;57.95;24.70;;;;;;;-2.73;79.69;99870.13;1835914;78;25168;-72
2022/01/10 00:09:12;;;;;;;55.15;23.92;;;;;;;-2.75;79.78;99872.21;1835888;78;27857;-73
2022/01/10 00:11:38;;;;;;;56.65;25.77;;;;;;;-2.78;79.58;99870.81;1835786;78;25623;-72
2022/01/10 00:14:05;;;;;;;54.88;23.25;;;;;;;-2.77;79.92;99871.12;1835943;78;25791;-72
2022/01/10 00:16:31;;;;;;;48.30;21.70;;;;;;;-2.76;80.07;99874.03;1831079;78;25599;-73
2022/01/10 00:18:58;;;;;;;51.88;20.88;;;;;;;-2.73;80.08;99878.87;1836022;78;25383;-72
2022/01/10 00:21:24;;;;;;;52.98;21.30;;;;;;;-2.73;80.06;99881.52;1835932;78;27964;-72
2022/01/10 00:23:51;;;;;;;54.27;23.77;;;;;;;-2.75;80.16;99882.80;1835827;78;25358;-73
2022/01/10 00:26:17;;;;;;;54.25;23.77;;;;;;;-2.72;80.24;99883.67;1831039;78;25139;-72
2022/01/10 00:28:44;;;;;;;58.42;23.45;;;;;;;-2.71;80.48;99886.06;1835915;78;25644;-72
2022/01/10 00:31:10;;;;;;;58.38;25.85;;;;;;;-2.68;80.59;99889.58;1836013;78;25580;-72
2022/01/10 00:33:37;;;;;;;67.08;28.42;;;;;;;-2.63;80.66;99893.66;1805660;78;28091;-72
2022/01/10 00:36:06;;;;;;;58.15;26.57;;;;;;;-2.60;80.64;99904.85;1835746;78;25366;-72
2022/01/10 00:38:33;;;;;;;63.17;25.70;;;;;;;-2.60;80.67;99907.50;1836106;78;25435;-73
2022/01/10 00:41:00;;;;;;;62.93;27.10;;;;;;;-2.59;81.16;99911.21;1820143;78;25691;-73
2022/01/10 00:43:39;;;;;;;60.83;24.72;;;;;;;-2.57;80.97;99910.48;1803131;79;25617;-73
2022/01/10 00:46:03;;;;;;;59.53;24.00;;;;;;;-2.55;81.08;99907.61;1802684;79;27346;-73
2022/01/10 00:48:30;;;;;;;59.37;23.17;;;;;;;-2.53;81.03;99909.50;1803219;79;25704;-73
2022/01/10 00:50:56;;;;;;;55.88;22.40;;;;;;;-2.50;81.03;99911.69;1803090;79;25482;-73
2022/01/10 00:53:25;;;;;;;62.95;25.43;;;;;;;-2.49;80.86;99915.94;1803008;79;25617;-73
2022/01/10 00:55:52;;;;;;;60.50;25.43;;;;;;;-2.48;80.92;99916.23;1803078;79;25525;-73
2022/01/10 00:58:19;;;;;;;56.50;24.98;;;;;;;-2.47;80.94;99916.50;1803051;79;27376;-73
2022/01/10 01:00:45;;;;;;;55.70;23.67;;;;;;;-2.42;81.08;99914.48;1802919;79;25601;-73
2022/01/10 01:03:12;;;;;;;62.08;27.02;;;;;;;-2.41;81.04;99924.86;1803067;79;25592;-73
2022/01/10 01:05:42;;;;;;;66.20;27.45;;;;;;;-2.37;81.07;99928.64;1789815;79;25662;-72
2022/01/10 01:08:09;;;;;;;61.05;23.95;;;;;;;-2.33;81.17;99934.31;1803120;79;25530;-72
2022/01/10 01:16:09;;;;;;;51.02;22.62;;;;;;;-2.33;80.96;99948.35;1773701;79;25620;-72
2022/01/10 01:19:10;;;;;;;54.15;22.58;;;;;;;-2.30;80.99;99954.52;1801841;79;25745;-72
2022/01/10 01:26:24;;;;;;;49.98;20.27;;;;;;;-2.26;80.83;99963.60;1802967;79;25551;-72
2022/01/10 01:28:51;;;;;;;49.70;21.90;;;;;;;-2.24;80.72;99967.34;1803027;79;25572;-73
2022/01/10 01:31:17;;;;;;;44.95;19.57;;;;;;;-2.23;80.81;99978.25;1802976;79;25659;-73
2022/01/10 01:33:45;;;;;;;48.73;22.02;;;;;;;-2.20;80.92;99982.27;1803174;79;25423;-74
2022/01/10 01:36:12;;;;;;;53.25;21.25;;;;;;;-2.18;81.06;99988.13;1796458;79;27278;-73
2022/01/10 01:38:40;;;;;;;51.53;20.57;;;;;;;-2.14;81.18;99987.97;1790035;79;25746;-73
2022/01/10 01:43:40;;;;;;;52.43;21.48;;;;;;;-2.00;81.58;99992.50;1789824;80;25672;-73
2022/01/10 01:46:07;;;;;;;43.95;21.07;;;;;;;-1.93;81.57;99991.84;1787648;80;25551;-73
2022/01/10 01:48:34;;;;;;;50.15;21.40;;;;;;;-1.88;81.32;100000.70;1787597;80;27382;-73
2022/01/10 01:51:03;;;;;;;44.15;19.82;;;;;;;-1.90;80.85;100001.46;1787492;80;25557;-73
2022/01/10 01:53:30;;;;;;;48.10;20.77;;;;;;;-1.93;80.92;99995.30;1787595;80;25479;-73
2022/01/10 01:56:00;;;;;;;47.38;21.65;;;;;;;-1.93;80.88;100005.10;1787555;80;25644;-73
2022/01/10 01:58:27;;;;;;;48.85;21.73;;;;;;;-1.89;81.06;100008.88;1787768;80;25453;-72
2022/01/10 02:00:54;;;;;;;49.20;20.70;;;;;;;-1.87;81.07;100008.16;1787534;80;27528;-72
2022/01/10 02:03:21;;;;;;;49.00;21.65;;;;;;;-1.84;80.86;100011.64;1787520;80;25370;-72
2022/01/10 02:05:47;;;;;;;48.85;21.62;;;;;;;-1.84;80.80;100014.83;1787713;80;25397;-72
2022/01/10 02:08:14;;;;;;;52.23;21.73;;;;;;;-1.86;80.70;100011.61;1787618;80;25639;-72
2022/01/10 02:10:40;;;;;;;47.78;21.90;;;;;;;-1.84;80.94;100011.64;1763078;80;25614;-73
2022/01/10 02:13:07;;;;;;;53.10;21.10;;;;;;;-1.86;80.77;100009.75;1787593;80;26911;-73
2022/01/10 02:15:51;;;;;;;43.25;19.73;;;;;;;-1.89;80.75;100016.34;1787494;80;25570;-73
2022/01/10 02:18:18;;;;;;;43.83;19.32;;;;;;;-1.88;80.82;100020.59;1787238;80;25639;-72
2022/01/10 02:20:46;;;;;;;47.25;18.32;;;;;;;-1.84;80.98;100025.43;1787745;80;26144;-72
2022/01/10 02:23:18;;;;;;;43.38;20.40;;;;;;;-1.84;80.89;100026.22;1787701;80;25408;-72
2022/01/10 02:25:46;;;;;;;47.38;19.73;;;;;;;-1.90;80.67;100025.32;1787659;80;27368;-72
2022/01/10 02:28:13;;;;;;;47.10;19.67;;;;;;;-1.90;80.75;100035.92;1787495;80;25554;-72
2022/01/10 02:30:40;;;;;;;47.05;19.85;;;;;;;-1.92;80.73;100038.53;1787618;80;25626;-72
2022/01/10 02:33:07;;;;;;;42.45;18.17;;;;;;;-1.96;80.72;100042.17;1787679;80;25611;-72
2022/01/10 02:35:51;;;;;;;35.90;16.87;;;;;;;-2.02;80.49;100047.06;1786045;80;25562;-73
2022/01/10 02:38:07;;;;;;;42.30;17.73;;;;;;;-2.05;80.61;100046.73;1771099;80;27395;-73
2022/01/10 02:40:34;;;;;;;48.13;20.95;;;;;;;-2.09;80.74;100050.36;1772980;80;25683;-73
2022/01/10 02:43:01;;;;;;;47.43;20.32;;;;;;;-2.10;81.12;100054.04;1773109;80;25462;-73
2022/01/10 02:45:28;;;;;;;44.83;20.90;;;;;;;-2.10;81.00;100056.16;1718208;80;25679;-73
2022/01/10 02:47:55;;;;;;;46.75;20.75;;;;;;;-2.15;80.99;100056.58;1773108;80;25396;-73
2022/01/10 02:50:23;;;;;;;50.28;22.32;;;;;;;-2.18;81.04;100057.86;1773079;80;27367;-73
2022/01/10 02:52:49;;;;;;;45.55;20.70;;;;;;;-2.19;81.25;100065.50;1773001;80;25433;-73
2022/01/10 02:55:16;;;;;;;46.73;21.60;;;;;;;-2.20;81.38;100066.53;1773088;80;25578;-73
2022/01/10 02:57:43;;;;;;;42.70;21.10;;;;;;;-2.19;81.42;100073.98;1773043;80;26175;-73
2022/01/10 03:00:15;;;;;;;47.08;20.37;;;;;;;-2.20;81.71;100075.80;1773128;80;25590;-73
2022/01/10 03:02:43;;;;;;;50.10;20.62;;;;;;;-2.20;81.74;100079.78;1743439;80;27370;-73
2022/01/10 03:05:11;;;;;;;45.70;21.55;;;;;;;-2.23;81.54;100076.78;1773075;80;25397;-73
2022/01/10 03:07:38;;;;;;;45.08;21.10;;;;;;;-2.27;81.61;100077.77;1773102;80;25420;-73
2022/01/10 03:10:07;;;;;;;49.48;21.85;;;;;;;-2.25;81.71;100092.91;1773034;80;25773;-73
2022/01/10 03:12:37;;;;;;;49.27;20.90;;;;;;;-2.26;81.68;100093.44;1773240;80;25404;-73
2022/01/10 03:15:11;;;;;;;51.37;21.25;;;;;;;-2.25;81.69;100098.20;1773077;80;28068;-73
2022/01/10 03:17:36;;;;;;;51.35;22.67;;;;;;;-2.26;81.68;100101.38;1769879;80;25567;-73
2022/01/10 03:20:06;;;;;;;47.45;22.42;;;;;;;-2.26;81.68;100104.56;1773062;80;25644;-73
2022/01/10 03:22:32;;;;;;;49.85;22.15;;;;;;;-2.25;81.71;100114.11;1772978;80;25635;-73
2022/01/10 03:25:00;;;;;;;49.20;21.15;;;;;;;-2.26;81.72;100118.61;1773102;80;25620;-73
2022/01/10 03:27:27;;;;;;;49.05;21.87;;;;;;;-2.23;81.87;100117.36;1773071;80;27974;-74
2022/01/10 03:29:56;;;;;;;50.10;22.20;;;;;;;-2.21;81.92;100119.75;1772988;80;25673;-74
2022/01/10 03:32:23;;;;;;;56.45;23.70;;;;;;;-2.16;81.88;100119.88;1773168;80;25605;-72
2022/01/10 03:34:50;;;;;;;51.77;22.70;;;;;;;-2.15;81.85;100122.83;1773155;80;26188;-73
2022/01/10 03:37:17;;;;;;;53.55;23.12;;;;;;;-2.15;81.79;100120.97;1775433;80;25550;-73
2022/01/10 03:39:44;;;;;;;55.30;24.77;;;;;;;-2.14;81.81;100140.36;1776626;80;27272;-73
2022/01/10 03:42:12;;;;;;;52.55;23.52;;;;;;;-2.13;81.61;100141.95;1775890;80;25665;-73
2022/01/10 03:44:38;;;;;;;54.30;23.27;;;;;;;-2.14;81.66;100143.00;1800567;79;25451;-73
2022/01/10 03:47:05;;;;;;;51.85;23.15;;;;;;;-2.13;81.75;100140.12;1800550;79;25661;-73
2022/01/10 03:49:32;;;;;;;54.00;23.85;;;;;;;-2.12;81.77;100133.77;1800580;79;25458;-73
2022/01/10 03:51:59;;;;;;;54.45;24.92;;;;;;;-2.12;81.63;100157.62;1800565;79;27293;-73
2022/01/10 03:54:25;;;;;;;60.00;25.35;;;;;;;-2.14;81.72;100154.41;1772228;79;25540;-73
2022/01/10 03:56:51;;;;;;;56.37;24.45;;;;;;;-2.14;81.75;100157.58;1800535;79;25568;-73
2022/01/10 03:59:18;;;;;;;58.55;24.07;;;;;;;-2.13;81.80;100160.50;1800525;79;25831;-73
2022/01/10 04:01:45;;;;;;;58.40;24.80;;;;;;;-2.12;81.87;100168.23;1800547;79;25652;-73
2022/01/10 04:04:11;;;;;;;54.85;24.52;;;;;;;-2.09;81.92;100173.61;1800587;79;27292;-73
2022/01/10 04:06:38;;;;;;;56.05;24.60;;;;;;;-2.09;81.86;100181.55;1800546;79;25762;-73
2022/01/10 04:09:04;;;;;;;55.65;24.47;;;;;;;-2.05;81.90;100180.05;1800541;79;25518;-73
2022/01/10 04:11:31;;;;;;;57.23;23.75;;;;;;;-2.03;81.88;100187.25;1800520;79;25648;-73
2022/01/10 04:13:57;;;;;;;65.40;26.45;;;;;;;-2.02;81.93;100196.84;1800575;79;25430;-73
2022/01/10 04:16:24;;;;;;;62.20;25.35;;;;;;;-2.02;81.98;100198.16;1800539;79;27512;-73
2022/01/10 04:18:50;;;;;;;57.95;25.57;;;;;;;-1.98;82.01;100204.61;1800454;79;25657;-73
2022/01/10 04:21:17;;;;;;;60.65;25.65;;;;;;;-1.97;81.99;100200.94;1800544;79;25529;-73
2022/01/10 04:23:43;;;;;;;60.92;26.20;;;;;;;-1.94;81.98;100204.46;1800507;79;25544;-73
2022/01/10 04:26:10;;;;;;;61.42;25.12;;;;;;;-1.92;81.88;100210.34;1800608;79;25508;-72
2022/01/10 04:28:36;;;;;;;68.37;26.15;;;;;;;-1.91;81.84;100206.66;1800562;79;27847;-72
2022/01/10 04:31:04;;;;;;;67.10;26.35;;;;;;;-1.90;81.90;100209.58;1800475;79;25689;-72
2022/01/10 04:33:30;;;;;;;65.80;26.05;;;;;;;-1.89;81.83;100204.59;1800590;79;25795;-72
2022/01/10 04:35:58;;;;;;;67.67;26.60;;;;;;;-1.88;81.92;100218.11;1800685;79;25712;-72
2022/01/10 04:38:25;;;;;;;65.62;27.37;;;;;;;-1.86;81.90;100210.45;1771449;79;25456;-72
2022/01/10 04:40:51;;;;;;;63.63;26.85;;;;;;;-1.83;81.86;100215.31;1800212;79;27290;-72
2022/01/10 04:43:18;;;;;;;66.90;26.90;;;;;;;-1.83;81.77;100217.97;1800098;79;25734;-72
2022/01/10 04:45:44;;;;;;;72.27;28.50;;;;;;;-1.82;81.79;100214.25;1800210;79;25548;-72
2022/01/10 04:48:11;;;;;;;70.90;26.75;;;;;;;-1.84;81.75;100219.78;1771178;79;25617;-72
2022/01/10 04:53:10;;;;;;;70.20;28.05;;;;;;;-1.82;81.83;100232.32;1800212;79;27322;-72
2022/01/10 04:55:37;;;;;;;72.95;29.57;;;;;;;-1.82;81.73;100234.97;1800113;79;25387;-72
2022/01/10 04:58:03;;;;;;;72.62;27.98;;;;;;;-1.83;81.81;100247.13;1790995;79;25392;-72
2022/01/10 05:00:30;;;;;;;71.47;27.73;;;;;;;-1.81;81.95;100255.13;1800154;79;26562;-73
2022/01/10 05:02:57;;;;;;;74.07;28.83;;;;;;;-1.81;82.00;100251.68;1800190;79;25419;-73
2022/01/10 05:05:23;;;;;;;72.42;27.37;;;;;;;-1.78;81.98;100256.02;1800412;79;28057;-73
2022/01/10 05:07:49;;;;;;;70.87;28.10;;;;;;;-1.76;82.05;100258.44;1770759;79;25487;-74
2022/01/10 05:10:17;;;;;;;74.47;29.30;;;;;;;-1.73;82.01;100260.64;1800165;79;25571;-74
2022/01/10 05:12:44;;;;;;;76.80;29.35;;;;;;;-1.73;82.01;100263.30;1800109;79;25600;-73
2022/01/10 05:15:10;;;;;;;71.82;29.30;;;;;;;-1.73;81.95;100264.09;1800240;79;25444;-73
2022/01/10 05:17:37;;;;;;;70.50;28.55;;;;;;;-1.71;81.96;100274.47;1790936;79;27415;-73
2022/01/10 05:20:05;;;;;;;78.12;29.67;;;;;;;-1.71;81.90;100273.95;1800081;79;25631;-73
2022/01/10 05:22:32;;;;;;;74.67;30.00;;;;;;;-1.68;81.89;100279.33;1790904;79;25649;-73
2022/01/10 05:24:58;;;;;;;78.50;30.32;;;;;;;-1.66;81.79;100285.73;1800163;79;25624;-73
2022/01/10 05:27:24;;;;;;;70.42;29.48;;;;;;;-1.66;81.75;100289.71;1800158;79;25426;-73
2022/01/10 05:29:51;;;;;;;80.03;31.17;;;;;;;-1.66;81.83;100293.16;1800329;79;28267;-73
2022/01/10 05:32:17;;;;;;;75.60;29.70;;;;;;;-1.65;81.84;100302.75;1800216;79;25545;-73
2022/01/10 05:34:44;;;;;;;79.20;28.73;;;;;;;-1.66;81.78;100306.95;1800233;79;25569;-73
2022/01/10 05:37:10;;;;;;;73.10;30.25;;;;;;;-1.66;81.78;100310.93;1798321;79;25611;-73
2022/01/10 05:39:37;;;;;;;77.60;28.40;;;;;;;-1.66;81.79;100318.89;1795182;79;25540;-72
2022/01/10 05:42:04;;;;;;;77.15;28.90;;;;;;;-1.66;81.75;100321.02;1795070;79;27314;-72
2022/01/10 05:44:31;;;;;;;76.37;31.50;;;;;;;-1.65;81.71;100329.77;1795039;79;25555;-73
2022/01/10 05:46:59;;;;;;;76.87;30.85;;;;;;;-1.67;81.67;100331.32;1795153;79;25398;-73
2022/01/10 05:49:32;;;;;;;81.25;31.62;;;;;;;-1.65;81.72;100337.73;1795122;79;25608;-73
2022/01/10 05:51:53;;;;;;;81.53;31.60;;;;;;;-1.66;81.74;100332.95;1764269;81;25424;-73
2022/01/10 05:54:20;;;;;;;80.38;31.73;;;;;;;-1.67;81.71;100337.95;1795224;79;27308;-73
2022/01/10 05:56:46;;;;;;;73.45;30.40;;;;;;;-1.68;81.67;100336.35;1764746;81;25612;-73
2022/01/10 05:59:13;;;;;;;79.15;31.33;;;;;;;-1.69;81.76;100342.68;1795241;79;25400;-73
2022/01/10 06:01:39;;;;;;;80.87;32.58;;;;;;;-1.69;81.84;100341.36;1764794;81;25620;-73
2022/01/10 06:04:05;;;;;;;82.88;32.63;;;;;;;-1.68;81.86;100342.19;1795329;79;25461;-73
2022/01/10 06:06:32;;;;;;;85.87;31.90;;;;;;;-1.69;81.88;100345.33;1765212;81;27491;-72
2022/01/10 06:08:58;;;;;;;83.45;33.20;;;;;;;-1.70;81.84;100351.69;1795257;79;25697;-72
2022/01/10 06:11:24;;;;;;;82.27;32.55;;;;;;;-1.71;81.91;100356.16;1795386;79;25509;-72
2022/01/10 06:13:51;;;;;;;86.92;35.03;;;;;;;-1.72;81.98;100358.55;1795296;79;25693;-73
2022/01/10 06:16:17;;;;;;;88.62;33.73;;;;;;;-1.72;81.99;100368.32;1765082;81;25522;-73
2022/01/10 06:18:46;;;;;;;85.38;34.45;;;;;;;-1.73;82.01;100371.50;1784071;79;27214;-74
2022/01/10 06:21:13;;;;;;;84.87;35.33;;;;;;;-1.73;82.02;100372.03;1767156;79;26273;-73
2022/01/10 06:23:39;;;;;;;90.30;34.48;;;;;;;-1.73;82.03;100375.48;1795207;79;25502;-73
2022/01/10 06:26:06;;;;;;;88.12;33.28;;;;;;;-1.75;82.08;100381.53;1764699;81;26121;-73
2022/01/10 06:28:33;;;;;;;94.40;35.55;;;;;;;-1.74;82.18;100395.09;1795263;79;25432;-73
2022/01/10 06:31:00;;;;;;;85.45;33.18;;;;;;;-1.75;82.25;100393.47;1795324;79;28024;-73
2022/01/10 06:33:27;;;;;;;92.08;34.45;;;;;;;-1.76;82.19;100402.97;1765012;81;25609;-72
2022/01/10 06:35:54;;;;;;;85.83;34.38;;;;;;;-1.76;82.33;100398.47;1795627;79;25391;-73
2022/01/10 06:38:20;;;;;;;85.07;32.83;;;;;;;-1.77;82.32;100403.50;1744812;81;25636;-72
2022/01/10 06:40:47;;;;;;;92.27;34.67;;;;;;;-1.75;82.43;100410.70;1735650;82;25418;-72
2022/01/10 06:43:13;;;;;;;77.90;32.50;;;;;;;-1.74;82.48;100418.14;1735573;82;27318;-72
2022/01/10 06:45:40;;;;;;;78.57;33.45;;;;;;;-1.75;82.46;100417.33;1735538;82;25662;-72
2022/01/10 06:48:07;;;;;;;81.35;34.55;;;;;;;-1.71;82.54;100420.34;1735610;82;25412;-73
2022/01/10 06:50:33;;;;;;;83.78;33.78;;;;;;;-1.71;82.52;100432.28;1735605;82;25595;-72
2022/01/10 06:53:00;;;;;;;79.45;31.68;;;;;;;-1.70;82.57;100441.34;1735518;82;25557;-72
2022/01/10 06:55:27;;;;;;;78.90;32.28;;;;;;;-1.67;82.52;100437.41;1735550;82;27374;-73
2022/01/10 06:57:54;;;;;;;86.55;35.75;;;;;;;-1.68;82.48;100437.67;1735506;82;25551;-73
2022/01/10 07:00:20;;;;;;;89.35;35.88;;;;;;;-1.67;82.50;100445.90;1735654;82;25373;-73
2022/01/10 07:02:47;;;;;;;75.75;32.35;;;;;;;-1.67;82.48;100457.31;1735549;82;25782;-73
2022/01/10 07:05:13;;;;;;;87.30;36.15;;;;;;;-1.66;82.56;100460.80;1773215;80;25563;-72
2022/01/10 07:07:41;;;;;;;85.42;34.03;;;;;;;-1.66;82.54;100465.57;1773035;80;27628;-72
2022/01/10 07:10:08;;;;;;;75.03;35.15;;;;;;;-1.66;82.58;100464.24;1773006;80;25408;-72
2022/01/10 07:12:35;;;;;;;83.07;34.98;;;;;;;-1.68;82.48;100471.63;1743147;80;25470;-72
2022/01/10 07:15:03;;;;;;;74.15;34.05;;;;;;;-1.68;82.52;100482.76;1772940;80;26201;-72
2022/01/10 07:17:30;;;;;;;77.00;34.35;;;;;;;-1.66;82.68;100485.98;1797507;79;25549;-72
2022/01/10 07:19:57;;;;;;;74.80;33.85;;;;;;;-1.68;82.56;100486.21;1797483;79;27326;-72
2022/01/10 07:22:23;;;;;;;75.42;35.55;;;;;;;-1.66;82.65;100485.98;1797000;79;25601;-72
2022/01/10 07:24:50;;;;;;;75.97;35.38;;;;;;;-1.64;82.67;100493.20;1797543;79;25467;-73
2022/01/10 07:27:16;;;;;;;71.12;32.45;;;;;;;-1.64;82.67;100499.31;1797430;79;25604;-73
2022/01/10 07:29:43;;;;;;;76.02;35.43;;;;;;;-1.64;82.61;100504.62;1797548;79;25439;-73
2022/01/10 07:32:11;;;;;;;73.07;33.42;;;;;;;-1.63;82.70;100506.25;1765043;79;27366;-73
2022/01/10 07:34:38;;;;;;;69.97;32.95;;;;;;;-1.62;82.61;100511.03;1797603;79;25523;-73
2022/01/10 07:37:05;;;;;;;71.77;33.18;;;;;;;-1.63;82.62;100513.41;1797403;79;25597;-73
2022/01/10 07:39:31;;;;;;;68.28;32.90;;;;;;;-1.62;82.57;100529.07;1797600;79;25652;-73
2022/01/10 07:41:57;;;;;;;69.15;32.48;;;;;;;-1.61;82.65;100529.38;1797634;79;25628;-73
2022/01/10 07:44:24;;;;;;;64.27;32.15;;;;;;;-1.60;82.56;100536.81;1797507;79;27979;-73
2022/01/10 07:46:50;;;;;;;62.95;30.10;;;;;;;-1.61;82.56;100543.16;1797357;79;25607;-73
2022/01/10 07:49:17;;;;;;;68.55;31.33;;;;;;;-1.60;82.64;100546.92;1797399;79;25606;-73
2022/01/10 07:51:43;;;;;;;63.63;29.92;;;;;;;-1.60;82.62;100553.56;1797417;79;25645;-74
2022/01/10 07:54:10;;;;;;;70.95;32.65;;;;;;;-1.60;82.55;100556.21;1797500;79;25547;-73
2022/01/10 07:56:36;;;;;;;59.85;28.95;;;;;;;-1.58;82.55;100562.09;1797443;79;27888;-73
2022/01/10 07:59:03;;;;;;;57.00;26.62;;;;;;;-1.58;82.52;100568.73;1797364;79;25419;-73
2022/01/10 08:01:29;;;;;;;58.55;28.70;;;;;;;-1.58;82.46;100574.56;1797467;79;25542;-73
2022/01/10 08:03:55;;;;;;;66.30;29.32;;;;;;;-1.58;82.60;100571.38;1797312;79;25620;-73
2022/01/10 08:06:23;;;;;;;57.48;26.42;;;;;;;-1.57;82.53;100574.31;1797231;79;25685;-73
2022/01/10 08:08:51;;;;;;;57.45;28.80;;;;;;;-1.58;82.25;100582.00;1794601;79;27345;-73
2022/01/10 08:11:18;;;;;;;63.63;28.95;;;;;;;-1.60;82.33;100590.70;1773530;80;25615;-73
2022/01/10 08:13:44;;;;;;;64.05;29.10;;;;;;;-1.59;82.43;100588.84;1766446;79;25739;-73
2022/01/10 08:16:11;;;;;;;59.13;26.52;;;;;;;-1.59;82.45;100590.17;1773443;80;25685;-73
2022/01/10 08:18:37;;;;;;;60.35;27.30;;;;;;;-1.58;82.34;100603.74;1795467;79;25615;-73
2022/01/10 08:21:06;;;;;;;64.00;28.15;;;;;;;-1.60;82.32;100603.96;1773790;80;27308;-73
2022/01/10 08:23:32;;;;;;;62.73;28.40;;;;;;;-1.61;82.33;100603.66;1776733;80;25603;-73
2022/01/10 08:25:58;;;;;;;64.82;28.75;;;;;;;-1.60;82.42;100611.92;1776838;80;25656;-73
2022/01/10 08:28:25;;;;;;;63.78;29.57;;;;;;;-1.59;82.45;100617.50;1767662;80;25560;-73
2022/01/10 08:30:52;;;;;;;60.85;29.42;;;;;;;-1.59;82.40;100621.48;1776618;80;25549;-73
2022/01/10 08:33:18;;;;;;;61.92;27.75;;;;;;;-1.59;82.43;100620.68;1776673;80;27517;-73
2022/01/10 08:35:44;;;;;;;63.78;27.32;;;;;;;-1.58;82.54;100627.09;1776820;80;25622;-72
2022/01/10 08:38:11;;;;;;;68.37;29.77;;;;;;;-1.57;82.36;100626.05;1775860;79;25588;-72
2022/01/10 08:40:37;;;;;;;62.50;29.07;;;;;;;-1.54;82.48;100630.12;1775120;80;26338;-72
2022/01/10 08:43:09;;;;;;;71.45;29.37;;;;;;;-1.51;82.64;100637.64;1775167;80;25688;-72
2022/01/10 08:45:33;;;;;;;60.35;27.60;;;;;;;-1.46;82.80;100637.79;1774047;79;27379;-72
2022/01/10 08:47:59;;;;;;;62.03;28.12;;;;;;;-1.42;82.76;100640.81;1774985;80;25763;-73
2022/01/10 08:50:27;;;;;;;63.23;27.75;;;;;;;-1.38;82.77;100644.14;1775182;80;26320;-73
2022/01/10 08:52:53;;;;;;;64.50;29.27;;;;;;;-1.31;82.76;100648.05;1774924;80;25632;-73
2022/01/10 08:55:20;;;;;;;62.48;28.92;;;;;;;-1.25;82.73;100651.13;1775193;80;25700;-73
2022/01/10 08:57:46;;;;;;;70.08;29.23;;;;;;;-1.21;82.80;100641.70;1775250;80;27412;-73
2022/01/10 09:00:13;;;;;;;62.85;27.65;;;;;;;-1.16;82.58;100648.48;1774870;80;25621;-73
2022/01/10 09:02:40;;;;;;;58.52;27.02;;;;;;;-1.08;82.33;100650.54;1775160;80;25784;-73
2022/01/10 09:05:08;;;;;;;59.03;27.73;;;;;;;-1.04;82.08;100657.84;1775140;80;26138;-74
2022/01/10 09:07:34;;;;;;;58.80;28.85;;;;;;;-0.97;82.18;100661.72;1774969;80;25615;-75
2022/01/10 09:10:01;;;;;;;63.95;28.45;;;;;;;-0.91;82.12;100663.50;1775231;80;27332;-74
2022/01/10 09:12:27;;;;;;;59.35;26.30;;;;;;;-0.83;82.21;100662.39;1775098;80;25689;-74
2022/01/10 09:14:54;;;;;;;65.35;29.07;;;;;;;-0.74;82.25;100669.53;1775013;80;25461;-74
2022/01/10 09:17:20;;;;;;;58.98;27.02;;;;;;;-0.69;81.78;100671.80;1775076;80;25604;-74
2022/01/10 09:19:47;;;;;;;59.13;27.17;;;;;;;-0.65;81.48;100674.28;1775155;80;25756;-74
2022/01/10 09:22:13;;;;;;;65.42;26.70;;;;;;;-0.57;81.59;100680.62;1774855;80;27341;-73
2022/01/10 09:24:40;;;;;;;62.38;27.10;;;;;;;-0.51;81.16;100684.24;1775139;80;25659;-74
2022/01/10 09:27:07;;;;;;;60.52;26.62;;;;;;;-0.44;81.28;100691.59;1775053;80;25640;-73
2022/01/10 09:29:33;;;;;;;56.98;26.25;;;;;;;-0.31;81.60;100687.13;1774844;80;26164;-73
2022/01/10 09:32:00;;;;;;;60.83;27.67;;;;;;;-0.14;81.96;100689.41;1775162;80;25602;-73
2022/01/10 09:34:26;;;;;;;56.02;26.42;;;;;;;-0.02;81.08;100696.92;1766222;80;27260;-73
2022/01/10 09:36:53;;;;;;;56.48;24.87;;;;;;;0.08;81.09;100695.00;1774821;80;25673;-73
2022/01/10 09:39:21;;;;;;;58.13;25.72;;;;;;;0.27;81.35;100703.70;1776078;80;25585;-72
2022/01/10 09:42:24;;;;;;;49.55;23.47;;;;;;;0.55;82.21;100702.23;1776871;80;25681;-74
2022/01/10 09:44:52;;;;;;;54.03;25.82;;;;;;;0.79;80.73;100696.88;1776683;80;25716;-74
2022/01/10 09:47:37;;;;;;;55.98;25.70;;;;;;;1.01;80.99;100701.87;1776692;80;27447;-74
2022/01/10 09:50:06;;;;;;;50.28;23.73;;;;;;;1.58;83.77;100699.76;1776769;80;25651;-73
2022/01/10 09:52:34;;;;;;;59.03;27.02;;;;;;;2.71;86.22;100702.11;1776738;80;25586;-73
2022/01/10 09:55:02;;;;;;;51.30;24.72;;;;;;;3.53;83.46;100701.21;1776757;80;25741;-74
2022/01/10 09:57:28;;;;;;;51.05;24.23;;;;;;;4.14;80.87;100704.69;1776699;80;25578;-73
2022/01/10 09:59:55;;;;;;;39.45;22.20;;;;;;;4.70;79.57;100709.64;1776587;80;27897;-74
2022/01/10 10:02:23;;;;;;;44.27;22.58;;;;;;;5.23;78.49;100713.92;1776628;80;25633;-74
2022/01/10 10:04:49;;;;;;;43.48;23.00;;;;;;;5.73;75.61;100720.23;1767795;80;25482;-73
2022/01/10 10:07:16;;;;;;;42.13;21.55;;;;;;;6.06;75.07;100718.97;1776447;80;26265;-73
2022/01/10 10:09:45;;;;;;;45.83;23.35;;;;;;;6.64;74.75;100717.31;1776940;80;25758;-73
2022/01/10 10:12:12;;;;;;;38.15;18.57;;;;;;;7.20;72.90;100724.41;1776795;79;27937;-74
2022/01/10 10:14:40;;;;;;;38.42;20.15;;;;;;;7.43;69.92;100720.24;1776508;80;25634;-74
2022/01/10 10:17:13;;;;;;;64.37;31.23;;;;;;;7.67;68.72;100719.02;1776828;80;25637;-73
2022/01/10 10:19:35;;;;;;;32.40;16.00;;;;;;;7.71;65.98;100726.55;1725739;80;25610;-70
2022/01/10 10:22:01;;;;;;;30.75;17.90;;;;;;;7.62;64.53;100743.84;1776584;80;25412;-70
2022/01/10 10:27:41;;;;;;;36.53;20.15;;;;;;;6.96;61.46;100751.09;1776693;80;25664;-71
2022/01/10 10:30:13;;;;;;;35.43;20.37;;;;;;;6.84;61.74;100753.28;1776554;80;25671;-72
2022/01/10 11:18:43;;;;;;;19.32;10.13;;;;;;;5.94;63.33;100793.55;1781023;78;25850;-71
2022/01/10 11:21:11;;;;;;;16.82;9.98;;;;;;;7.01;62.34;100791.42;1754250;81;25601;-71
2022/01/10 11:23:46;;;;;;;16.85;9.78;;;;;;;7.45;60.01;100790.75;1815677;79;25603;-71
2022/01/10 11:26:14;;;;;;;17.07;9.98;;;;;;;7.84;59.13;100797.30;1815566;79;26234;-71
2022/01/10 11:28:54;;;;;;;16.67;9.73;;;;;;;8.21;58.51;100796.80;1815421;79;25596;-71
2022/01/10 11:31:28;;;;;;;20.52;10.18;;;;;;;8.51;56.80;100804.95;1813880;79;27081;-72
2022/01/10 11:33:58;;;;;;;14.43;9.53;;;;;;;8.98;57.33;100793.45;1815687;79;25598;-71
2022/01/10 11:36:29;;;;;;;16.37;9.38;;;;;;;9.33;55.70;100802.80;1815386;79;25600;-72
2022/01/10 11:38:59;;;;;;;19.95;10.30;;;;;;;9.61;55.47;100813.82;1785246;78;25702;-72
2022/01/10 11:41:30;;;;;;;14.20;8.85;;;;;;;9.94;55.02;100817.97;1815582;79;25695;-71
2022/01/10 11:44:04;;;;;;;13.32;8.80;;;;;;;10.18;53.36;100816.55;1815433;79;27305;-70
2022/01/10 11:46:44;;;;;;;11.93;7.72;;;;;;;10.20;52.60;100823.28;1814693;79;25734;-72
2022/01/10 11:49:16;;;;;;;13.32;8.78;;;;;;;10.21;51.26;100823.52;1814806;78;25464;-71
2022/01/10 11:51:49;;;;;;;14.30;8.65;;;;;;;10.12;51.48;100828.55;1815295;79;25628;-71
2022/01/10 11:54:37;;;;;;;16.48;8.43;;;;;;;10.24;51.10;100827.55;1813534;78;25384;-71
2022/01/10 11:57:13;;;;;;;14.70;9.35;;;;;;;10.41;50.98;100835.96;1815103;79;27303;-71
2022/01/10 11:59:45;;;;;;;12.98;8.90;;;;;;;10.58;50.60;100840.83;1814979;79;25820;-71
2022/01/10 12:02:15;;;;;;;13.68;9.40;;;;;;;10.45;49.50;100841.05;1812881;78;25656;-71
2022/01/10 12:04:49;;;;;;;13.58;8.73;;;;;;;10.43;48.98;100839.72;1810020;79;25676;-72
2022/01/10 12:07:19;;;;;;;14.80;9.20;;;;;;;10.26;48.46;100845.62;1812861;79;25596;-70
2022/01/10 12:09:45;;;;;;;;;;;;;;;10.16;48.93;100844.42;1815876;79;27356;-69
2022/01/10 12:12:16;;;;;;;13.98;8.80;;;;;;;10.21;48.07;100847.05;1811016;79;25680;-70
2022/01/10 12:14:43;;;;;;;13.68;8.68;;;;;;;10.20;48.90;100855.72;1812980;79;25602;-71
2022/01/10 12:17:12;;;;;;;15.32;8.95;;;;;;;10.27;47.92;100856.15;1812744;78;25656;-70
2022/01/10 12:19:39;;;;;;;20.43;8.63;;;;;;;10.24;47.72;100859.44;1812664;79;25621;-71